sensor_id;sensor_type;location;lat;lon;timestamp;pressure;altitude;pressure_sealevel;temperature;humidity
61026;BME280;46911;32.650;-16.902;2023-04-26T00:01:45;101405.03;;;17.32;54.45
61026;BME280;46911;32.650;-16.902;2023-04-26T00:03:48;101421.41;;;17.40;54.37
61026;BME280;46911;32.650;-16.902;2023-04-26T00:05:52;101422.16;;;17.43;53.15
61026;BME280;46911;32.650;-16.902;2023-04-26T00:07:52;101401.94;;;17.37;52.30
61026;BME280;46911;32.650;-16.902;2023-04-26T00:09:53;101396.97;;;17.32;52.17
61026;BME280;46911;32.650;-16.902;2023-04-26T00:11:54;101418.59;;;17.42;53.21
61026;BME280;46911;32.650;-16.902;2023-04-26T00:13:58;101404.91;;;17.34;53.28
61026;BME280;46911;32.650;-16.902;2023-04-26T00:16:01;101432.66;;;17.46;51.66
61026;BME280;46911;32.650;-16.902;2023-04-26T00:18:02;101403.59;;;17.28;51.53
61026;BME280;46911;32.650;-16.902;2023-04-26T00:20:06;101413.66;;;17.26;52.03
61026;BME280;46911;32.650;-16.902;2023-04-26T00:22:11;101439.13;;;17.33;53.15
61026;BME280;46911;32.650;-16.902;2023-04-26T00:24:12;101389.78;;;17.00;54.54
61026;BME280;46911;32.650;-16.902;2023-04-26T00:26:13;101434.50;;;17.24;57.78
61026;BME280;46911;32.650;-16.902;2023-04-26T00:28:19;101439.03;;;17.23;58.80
61026;BME280;46911;32.650;-16.902;2023-04-26T00:30:20;101426.47;;;17.13;57.94
61026;BME280;46911;32.650;-16.902;2023-04-26T00:32:22;101437.22;;;17.24;57.21
61026;BME280;46911;32.650;-16.902;2023-04-26T00:34:22;101417.41;;;17.14;55.92
61026;BME280;46911;32.650;-16.902;2023-04-26T00:36:24;101429.50;;;17.19;54.94
61026;BME280;46911;32.650;-16.902;2023-04-26T00:38:26;101428.13;;;17.25;54.29
61026;BME280;46911;32.650;-16.902;2023-04-26T00:40:27;101431.94;;;17.22;54.37
61026;BME280;46911;32.650;-16.902;2023-04-26T00:42:28;101413.59;;;17.16;53.75
61026;BME280;46911;32.650;-16.902;2023-04-26T00:44:31;101420.44;;;17.20;53.55
61026;BME280;46911;32.650;-16.902;2023-04-26T00:46:38;101406.63;;;17.14;53.41
61026;BME280;46911;32.650;-16.902;2023-04-26T00:48:39;101406.56;;;17.25;53.61
61026;BME280;46911;32.650;-16.902;2023-04-26T00:50:43;101401.56;;;17.20;54.06
61026;BME280;46911;32.650;-16.902;2023-04-26T00:52:46;101374.78;;;17.07;54.21
61026;BME280;46911;32.650;-16.902;2023-04-26T00:54:48;101410.38;;;17.22;53.71
61026;BME280;46911;32.650;-16.902;2023-04-26T00:56:51;101415.53;;;17.14;53.98
61026;BME280;46911;32.650;-16.902;2023-04-26T00:58:52;101399.44;;;17.03;53.68
61026;BME280;46911;32.650;-16.902;2023-04-26T01:00:56;101384.19;;;16.92;53.48
61026;BME280;46911;32.650;-16.902;2023-04-26T01:02:59;101378.94;;;16.90;53.21
61026;BME280;46911;32.650;-16.902;2023-04-26T01:05:03;101393.22;;;17.02;51.90
61026;BME280;46911;32.650;-16.902;2023-04-26T01:07:07;101391.34;;;17.03;51.80
61026;BME280;46911;32.650;-16.902;2023-04-26T01:09:08;101358.94;;;16.93;51.76
61026;BME280;46911;32.650;-16.902;2023-04-26T01:11:13;101351.56;;;16.95;52.74
61026;BME280;46911;32.650;-16.902;2023-04-26T01:13:17;101370.91;;;17.00;52.54
61026;BME280;46911;32.650;-16.902;2023-04-26T01:15:20;101360.72;;;17.04;51.91
61026;BME280;46911;32.650;-16.902;2023-04-26T01:17:24;101361.84;;;17.01;51.50
61026;BME280;46911;32.650;-16.902;2023-04-26T01:19:30;101338.84;;;16.86;51.59
61026;BME280;46911;32.650;-16.902;2023-04-26T01:21:31;101368.84;;;16.93;53.10
61026;BME280;46911;32.650;-16.902;2023-04-26T01:23:35;101373.75;;;16.87;53.79
61026;BME280;46911;32.650;-16.902;2023-04-26T01:25:35;101356.81;;;16.76;54.89
61026;BME280;46911;32.650;-16.902;2023-04-26T01:27:37;101357.78;;;16.74;55.49
61026;BME280;46911;32.650;-16.902;2023-04-26T01:29:43;101356.81;;;16.64;55.57
61026;BME280;46911;32.650;-16.902;2023-04-26T01:31:48;101359.56;;;16.53;55.23
61026;BME280;46911;32.650;-16.902;2023-04-26T01:33:51;101357.38;;;16.47;54.88
61026;BME280;46911;32.650;-16.902;2023-04-26T01:35:57;101368.41;;;16.44;54.82
61026;BME280;46911;32.650;-16.902;2023-04-26T01:37:58;101383.81;;;16.53;55.16
61026;BME280;46911;32.650;-16.902;2023-04-26T01:40:01;101386.75;;;16.50;55.85
61026;BME280;46911;32.650;-16.902;2023-04-26T01:42:03;101362.78;;;16.35;56.41
61026;BME280;46911;32.650;-16.902;2023-04-26T01:44:07;101380.78;;;16.46;56.66
61026;BME280;46911;32.650;-16.902;2023-04-26T01:46:13;101379.56;;;16.39;56.54
61026;BME280;46911;32.650;-16.902;2023-04-26T01:48:18;101359.16;;;16.25;56.71
61026;BME280;46911;32.650;-16.902;2023-04-26T01:50:21;101367.22;;;16.25;56.56
61026;BME280;46911;32.650;-16.902;2023-04-26T01:52:25;101370.16;;;16.33;56.67
61026;BME280;46911;32.650;-16.902;2023-04-26T01:54:26;101366.72;;;16.31;56.88
61026;BME280;46911;32.650;-16.902;2023-04-26T01:56:30;101356.47;;;16.25;57.09
61026;BME280;46911;32.650;-16.902;2023-04-26T01:58:34;101361.84;;;16.25;57.15
61026;BME280;46911;32.650;-16.902;2023-04-26T02:00:36;101344.00;;;16.13;57.04
61026;BME280;46911;32.650;-16.902;2023-04-26T02:02:37;101368.94;;;16.26;56.69
61026;BME280;46911;32.650;-16.902;2023-04-26T02:04:42;101363.31;;;16.29;55.71
61026;BME280;46911;32.650;-16.902;2023-04-26T02:06:43;101347.41;;;16.26;55.02
61026;BME280;46911;32.650;-16.902;2023-04-26T02:08:47;101338.81;;;16.32;55.06
61026;BME280;46911;32.650;-16.902;2023-04-26T02:10:51;101361.19;;;16.44;55.58
61026;BME280;46911;32.650;-16.902;2023-04-26T02:12:52;101331.47;;;16.34;56.00
61026;BME280;46911;32.650;-16.902;2023-04-26T02:14:55;101332.94;;;16.38;55.24
61026;BME280;46911;32.650;-16.902;2023-04-26T02:16:56;101333.50;;;16.42;54.56
61026;BME280;46911;32.650;-16.902;2023-04-26T02:18:59;101340.81;;;16.51;53.93
61026;BME280;46911;32.650;-16.902;2023-04-26T02:21:00;101311.25;;;16.40;53.58
61026;BME280;46911;32.650;-16.902;2023-04-26T02:23:07;101330.66;;;16.55;53.33
61026;BME280;46911;32.650;-16.902;2023-04-26T02:25:12;101307.19;;;16.46;52.47
61026;BME280;46911;32.650;-16.902;2023-04-26T02:27:13;101324.03;;;16.59;52.37
61026;BME280;46911;32.650;-16.902;2023-04-26T02:29:14;101320.38;;;16.60;51.67
61026;BME280;46911;32.650;-16.902;2023-04-26T02:31:15;101299.72;;;16.49;51.66
61026;BME280;46911;32.650;-16.902;2023-04-26T02:33:16;101290.91;;;16.47;51.80
61026;BME280;46911;32.650;-16.902;2023-04-26T02:35:17;101286.59;;;16.56;50.96
61026;BME280;46911;32.650;-16.902;2023-04-26T02:37:20;101295.53;;;16.56;50.73
61026;BME280;46911;32.650;-16.902;2023-04-26T02:39:26;101291.84;;;16.57;50.93
61026;BME280;46911;32.650;-16.902;2023-04-26T02:41:30;101312.97;;;16.73;50.82
61026;BME280;46911;32.650;-16.902;2023-04-26T02:43:31;101301.72;;;16.68;50.97
61026;BME280;46911;32.650;-16.902;2023-04-26T02:45:42;101300.88;;;16.68;53.25
61026;BME280;46911;32.650;-16.902;2023-04-26T02:47:45;101292.06;;;16.66;54.38
61026;BME280;46911;32.650;-16.902;2023-04-26T02:49:46;101264.59;;;16.51;54.95
61026;BME280;46911;32.650;-16.902;2023-04-26T02:51:47;101259.84;;;16.43;56.19
61026;BME280;46911;32.650;-16.902;2023-04-26T02:53:48;101260.25;;;16.38;55.79
61026;BME280;46911;32.650;-16.902;2023-04-26T02:55:49;101262.41;;;16.45;54.51
61026;BME280;46911;32.650;-16.902;2023-04-26T02:57:51;101236.91;;;16.28;53.56
61026;BME280;46911;32.650;-16.902;2023-04-26T02:59:52;101234.59;;;16.23;53.50
61026;BME280;46911;32.650;-16.902;2023-04-26T03:01:55;101250.84;;;16.33;53.28
61026;BME280;46911;32.650;-16.902;2023-04-26T03:03:56;101244.72;;;16.31;53.76
61026;BME280;46911;32.650;-16.902;2023-04-26T03:05:58;101251.34;;;16.27;54.33
61026;BME280;46911;32.650;-16.902;2023-04-26T03:07:58;101228.66;;;16.08;55.78
61026;BME280;46911;32.650;-16.902;2023-04-26T03:10:02;101248.59;;;16.17;57.02
61026;BME280;46911;32.650;-16.902;2023-04-26T03:12:05;101236.47;;;16.11;57.74
61026;BME280;46911;32.650;-16.902;2023-04-26T03:14:10;101224.88;;;15.99;58.19
61026;BME280;46911;32.650;-16.902;2023-04-26T03:16:11;101229.69;;;15.96;58.33
61026;BME280;46911;32.650;-16.902;2023-04-26T03:18:12;101238.09;;;16.02;58.55
61026;BME280;46911;32.650;-16.902;2023-04-26T03:20:13;101224.09;;;15.87;58.68
61026;BME280;46911;32.650;-16.902;2023-04-26T03:22:16;101227.00;;;15.84;58.64
61026;BME280;46911;32.650;-16.902;2023-04-26T03:24:18;101238.53;;;15.86;58.48
61026;BME280;46911;32.650;-16.902;2023-04-26T03:26:19;101231.81;;;15.81;58.38
61026;BME280;46911;32.650;-16.902;2023-04-26T03:28:20;101239.09;;;15.79;58.25
61026;BME280;46911;32.650;-16.902;2023-04-26T03:30:21;101238.38;;;15.77;58.13
61026;BME280;46911;32.650;-16.902;2023-04-26T03:32:23;101223.97;;;15.66;57.82
61026;BME280;46911;32.650;-16.902;2023-04-26T03:34:24;101231.06;;;15.67;57.57
61026;BME280;46911;32.650;-16.902;2023-04-26T03:36:32;101243.66;;;15.78;56.66
61026;BME280;46911;32.650;-16.902;2023-04-26T03:38:35;101240.81;;;15.80;56.41
61026;BME280;46911;32.650;-16.902;2023-04-26T03:40:38;101242.06;;;15.76;56.17
61026;BME280;46911;32.650;-16.902;2023-04-26T03:42:40;101229.84;;;15.71;55.55
61026;BME280;46911;32.650;-16.902;2023-04-26T03:44:44;101231.81;;;15.81;54.42
61026;BME280;46911;32.650;-16.902;2023-04-26T03:46:45;101209.03;;;15.73;54.48
61026;BME280;46911;32.650;-16.902;2023-04-26T03:48:48;101216.13;;;15.86;54.23
61026;BME280;46911;32.650;-16.902;2023-04-26T03:50:50;101196.84;;;15.81;54.33
61026;BME280;46911;32.650;-16.902;2023-04-26T03:52:51;101218.19;;;15.94;54.47
61026;BME280;46911;32.650;-16.902;2023-04-26T03:54:54;101209.97;;;15.95;54.83
61026;BME280;46911;32.650;-16.902;2023-04-26T03:57:02;101209.97;;;15.95;55.08
61026;BME280;46911;32.650;-16.902;2023-04-26T03:59:05;101212.66;;;15.95;54.99
61026;BME280;46911;32.650;-16.902;2023-04-26T04:01:06;101191.19;;;15.84;54.74
61026;BME280;46911;32.650;-16.902;2023-04-26T04:03:08;101204.16;;;15.90;54.39
61026;BME280;46911;32.650;-16.902;2023-04-26T04:05:09;101208.03;;;15.97;54.22
61026;BME280;46911;32.650;-16.902;2023-04-26T04:07:12;101186.66;;;15.84;54.09
61026;BME280;46911;32.650;-16.902;2023-04-26T04:09:13;101183.13;;;15.84;54.24
61026;BME280;46911;32.650;-16.902;2023-04-26T04:11:14;101188.13;;;15.88;54.37
61026;BME280;46911;32.650;-16.902;2023-04-26T04:13:18;101188.72;;;15.92;54.87
61026;BME280;46911;32.650;-16.902;2023-04-26T04:15:19;101166.25;;;15.82;55.20
61026;BME280;46911;32.650;-16.902;2023-04-26T04:17:25;101166.25;;;15.82;56.00
61026;BME280;46911;32.650;-16.902;2023-04-26T04:19:26;101185.91;;;15.94;56.58
61026;BME280;46911;32.650;-16.902;2023-04-26T04:21:32;101164.31;;;15.84;57.06
61026;BME280;46911;32.650;-16.902;2023-04-26T04:23:37;101165.00;;;15.86;56.43
61026;BME280;46911;32.650;-16.902;2023-04-26T04:25:44;101176.34;;;16.01;56.06
61026;BME280;46911;32.650;-16.902;2023-04-26T04:27:47;101157.53;;;15.89;55.66
61026;BME280;46911;32.650;-16.902;2023-04-26T04:29:48;101145.94;;;15.89;55.25
61026;BME280;46911;32.650;-16.902;2023-04-26T04:31:51;101180.72;;;16.02;54.78
61026;BME280;46911;32.650;-16.902;2023-04-26T04:33:52;101173.00;;;16.09;53.66
61026;BME280;46911;32.650;-16.902;2023-04-26T04:35:54;101169.47;;;16.08;53.32
61026;BME280;46911;32.650;-16.902;2023-04-26T04:37:58;101169.31;;;16.10;53.17
61026;BME280;46911;32.650;-16.902;2023-04-26T04:39:59;101164.81;;;16.10;53.29
61026;BME280;46911;32.650;-16.902;2023-04-26T04:42:09;101153.94;;;16.00;53.65
61026;BME280;46911;32.650;-16.902;2023-04-26T04:44:14;101154.56;;;16.04;53.68
61026;BME280;46911;32.650;-16.902;2023-04-26T04:46:16;101163.22;;;16.08;53.71
61026;BME280;46911;32.650;-16.902;2023-04-26T04:48:17;101163.34;;;16.06;53.62
61026;BME280;46911;32.650;-16.902;2023-04-26T04:50:22;101150.41;;;16.00;53.21
61026;BME280;46911;32.650;-16.902;2023-04-26T04:52:28;101169.72;;;16.05;52.67
61026;BME280;46911;32.650;-16.902;2023-04-26T04:54:32;101151.06;;;15.92;52.61
61026;BME280;46911;32.650;-16.902;2023-04-26T04:56:35;101148.50;;;15.90;52.76
61026;BME280;46911;32.650;-16.902;2023-04-26T04:58:36;101166.84;;;15.97;52.90
61026;BME280;46911;32.650;-16.902;2023-04-26T05:00:41;101140.34;;;15.81;53.27
61026;BME280;46911;32.650;-16.902;2023-04-26T05:03:01;101160.78;;;15.83;53.38
61026;BME280;46911;32.650;-16.902;2023-04-26T05:05:03;101160.88;;;15.82;53.32
61026;BME280;46911;32.650;-16.902;2023-04-26T05:07:07;101144.75;;;15.70;53.50
61026;BME280;46911;32.650;-16.902;2023-04-26T05:09:13;101162.22;;;15.76;52.88
61026;BME280;46911;32.650;-16.902;2023-04-26T05:11:14;101163.56;;;15.82;52.64
61026;BME280;46911;32.650;-16.902;2023-04-26T05:13:15;101162.06;;;15.78;52.49
61026;BME280;46911;32.650;-16.902;2023-04-26T05:15:20;101166.75;;;15.76;52.19
61026;BME280;46911;32.650;-16.902;2023-04-26T05:17:23;101172.97;;;15.76;51.84
61026;BME280;46911;32.650;-16.902;2023-04-26T05:19:27;101150.13;;;15.70;52.13
61026;BME280;46911;32.650;-16.902;2023-04-26T05:21:30;101146.22;;;15.63;52.37
61026;BME280;46911;32.650;-16.902;2023-04-26T05:23:35;101167.50;;;15.66;52.68
61026;BME280;46911;32.650;-16.902;2023-04-26T05:25:40;101145.66;;;15.48;52.85
61026;BME280;46911;32.650;-16.902;2023-04-26T05:28:00;101145.31;;;15.42;53.16
61026;BME280;46911;32.650;-16.902;2023-04-26T05:30:00;101157.28;;;15.37;53.24
61026;BME280;46911;32.650;-16.902;2023-04-26T05:32:18;101152.66;;;15.39;52.88
61026;BME280;46911;32.650;-16.902;2023-04-26T05:34:27;101161.56;;;15.40;52.74
61026;BME280;46911;32.650;-16.902;2023-04-26T05:36:31;101175.34;;;15.47;53.02
61026;BME280;46911;32.650;-16.902;2023-04-26T05:38:37;101165.63;;;15.34;53.49
61026;BME280;46911;32.650;-16.902;2023-04-26T05:40:41;101173.16;;;15.40;54.29
61026;BME280;46911;32.650;-16.902;2023-04-26T05:42:47;101174.28;;;15.38;54.65
61026;BME280;46911;32.650;-16.902;2023-04-26T05:44:47;101157.56;;;15.23;54.00
61026;BME280;46911;32.650;-16.902;2023-04-26T05:46:51;101177.34;;;15.33;52.93
61026;BME280;46911;32.650;-16.902;2023-04-26T05:48:54;101180.03;;;15.33;52.54
61026;BME280;46911;32.650;-16.902;2023-04-26T05:50:56;101185.78;;;15.29;52.03
61026;BME280;46911;32.650;-16.902;2023-04-26T05:52:59;101189.31;;;15.29;51.57
61026;BME280;46911;32.650;-16.902;2023-04-26T05:55:00;101180.91;;;15.22;50.88
61026;BME280;46911;32.650;-16.902;2023-04-26T05:57:09;101188.84;;;15.24;50.88
61026;BME280;46911;32.650;-16.902;2023-04-26T05:59:12;101180.16;;;15.20;50.91
61026;BME280;46911;32.650;-16.902;2023-04-26T06:01:15;101188.00;;;15.23;50.95
61026;BME280;46911;32.650;-16.902;2023-04-26T06:03:16;101204.22;;;15.33;51.12
61026;BME280;46911;32.650;-16.902;2023-04-26T06:05:20;101190.53;;;15.25;50.78
61026;BME280;46911;32.650;-16.902;2023-04-26T06:07:21;101208.75;;;15.33;51.27
61026;BME280;46911;32.650;-16.902;2023-04-26T06:09:22;101204.69;;;15.27;52.04
61026;BME280;46911;32.650;-16.902;2023-04-26T06:11:23;101203.97;;;15.25;51.83
61026;BME280;46911;32.650;-16.902;2023-04-26T06:13:24;101207.63;;;15.24;51.87
61026;BME280;46911;32.650;-16.902;2023-04-26T06:15:29;101199.72;;;15.22;51.84
61026;BME280;46911;32.650;-16.902;2023-04-26T06:17:34;101191.03;;;15.19;51.52
61026;BME280;46911;32.650;-16.902;2023-04-26T06:19:37;101172.38;;;15.06;52.00
61026;BME280;46911;32.650;-16.902;2023-04-26T06:21:40;101171.63;;;15.04;51.85
61026;BME280;46911;32.650;-16.902;2023-04-26T06:23:44;101189.81;;;15.12;52.11
61026;BME280;46911;32.650;-16.902;2023-04-26T06:25:46;101179.41;;;15.07;52.43
61026;BME280;46911;32.650;-16.902;2023-04-26T06:27:49;101167.84;;;14.95;52.67
61026;BME280;46911;32.650;-16.902;2023-04-26T06:29:50;101184.34;;;15.02;53.04
61026;BME280;46911;32.650;-16.902;2023-04-26T06:31:52;101174.19;;;14.94;53.52
61026;BME280;46911;32.650;-16.902;2023-04-26T06:33:55;101174.31;;;14.93;53.86
61026;BME280;46911;32.650;-16.902;2023-04-26T06:35:58;101165.75;;;14.87;54.50
61026;BME280;46911;32.650;-16.902;2023-04-26T06:38:01;101189.09;;;14.98;55.29
61026;BME280;46911;32.650;-16.902;2023-04-26T06:40:03;101189.09;;;14.98;56.19
61026;BME280;46911;32.650;-16.902;2023-04-26T06:42:07;101174.41;;;14.91;56.72
61026;BME280;46911;32.650;-16.902;2023-04-26T06:44:26;101192.00;;;15.06;57.16
61026;BME280;46911;32.650;-16.902;2023-04-26T06:46:35;101171.38;;;14.96;57.22
61026;BME280;46911;32.650;-16.902;2023-04-26T06:48:39;101175.78;;;14.97;57.25
61026;BME280;46911;32.650;-16.902;2023-04-26T06:50:41;101194.31;;;15.11;57.55
61026;BME280;46911;32.650;-16.902;2023-04-26T06:52:50;101193.22;;;15.14;57.67
61026;BME280;46911;32.650;-16.902;2023-04-26T06:54:51;101179.06;;;15.12;57.81
61026;BME280;46911;32.650;-16.902;2023-04-26T06:56:55;101189.44;;;15.16;57.81
61026;BME280;46911;32.650;-16.902;2023-04-26T06:59:04;101182.97;;;15.19;57.76
61026;BME280;46911;32.650;-16.902;2023-04-26T07:01:05;101201.03;;;15.39;57.89
61026;BME280;46911;32.650;-16.902;2023-04-26T07:03:08;101203.97;;;15.48;58.03
61026;BME280;46911;32.650;-16.902;2023-04-26T07:05:09;101200.78;;;15.54;58.41
61026;BME280;46911;32.650;-16.902;2023-04-26T07:07:14;101179.75;;;15.48;58.75
61026;BME280;46911;32.650;-16.902;2023-04-26T07:09:16;101178.88;;;15.59;59.73
61026;BME280;46911;32.650;-16.902;2023-04-26T07:11:20;101144.59;;;15.39;59.69
61026;BME280;46911;32.650;-16.902;2023-04-26T07:13:23;101195.22;;;15.78;59.69
61026;BME280;46911;32.650;-16.902;2023-04-26T07:15:24;101170.53;;;15.73;59.82
61026;BME280;46911;32.650;-16.902;2023-04-26T07:17:25;101184.94;;;15.95;59.97
61026;BME280;46911;32.650;-16.902;2023-04-26T07:19:28;101172.22;;;15.97;59.88
61026;BME280;46911;32.650;-16.902;2023-04-26T07:21:29;101170.44;;;16.07;59.34
61026;BME280;46911;32.650;-16.902;2023-04-26T07:23:31;101174.19;;;16.16;58.81
61026;BME280;46911;32.650;-16.902;2023-04-26T07:25:32;101178.25;;;16.31;57.46
61026;BME280;46911;32.650;-16.902;2023-04-26T07:27:36;101183.88;;;16.39;56.90
61026;BME280;46911;32.650;-16.902;2023-04-26T07:29:39;101203.44;;;16.63;55.90
61026;BME280;46911;32.650;-16.902;2023-04-26T07:31:41;101220.38;;;16.74;54.16
61026;BME280;46911;32.650;-16.902;2023-04-26T07:33:46;101230.63;;;16.81;53.77
61026;BME280;46911;32.650;-16.902;2023-04-26T07:35:53;101216.31;;;16.80;52.67
61026;BME280;46911;32.650;-16.902;2023-04-26T07:37:57;101242.28;;;17.02;52.08
61026;BME280;46911;32.650;-16.902;2023-04-26T07:39:58;101240.75;;;17.10;51.65
61026;BME280;46911;32.650;-16.902;2023-04-26T07:41:59;101227.25;;;17.10;51.62
61026;BME280;46911;32.650;-16.902;2023-04-26T07:44:03;101235.25;;;17.21;51.54
61026;BME280;46911;32.650;-16.902;2023-04-26T07:46:06;101256.78;;;17.42;51.70
61026;BME280;46911;32.650;-16.902;2023-04-26T07:48:11;101250.97;;;17.47;51.80
61026;BME280;46911;32.650;-16.902;2023-04-26T07:50:12;101246.59;;;17.55;51.88
61026;BME280;46911;32.650;-16.902;2023-04-26T07:52:16;101272.66;;;17.86;52.08
61026;BME280;46911;32.650;-16.902;2023-04-26T07:54:17;101252.97;;;17.95;51.89
61026;BME280;46911;32.650;-16.902;2023-04-26T07:56:17;101268.22;;;18.26;52.69
61026;BME280;46911;32.650;-16.902;2023-04-26T07:58:18;101258.28;;;18.46;52.74
61026;BME280;46911;32.650;-16.902;2023-04-26T08:00:20;101237.22;;;18.59;51.52
61026;BME280;46911;32.650;-16.902;2023-04-26T08:02:24;101252.28;;;18.91;50.82
61026;BME280;46911;32.650;-16.902;2023-04-26T08:04:33;101252.19;;;19.11;50.51
61026;BME280;46911;32.650;-16.902;2023-04-26T08:06:34;101233.94;;;19.22;50.32
61026;BME280;46911;32.650;-16.902;2023-04-26T08:08:37;101257.16;;;19.53;49.77
61026;BME280;46911;32.650;-16.902;2023-04-26T08:10:44;101231.34;;;19.58;49.99
61026;BME280;46911;32.650;-16.902;2023-04-26T08:12:45;101228.47;;;19.70;50.54
61026;BME280;46911;32.650;-16.902;2023-04-26T08:14:46;101229.38;;;19.79;51.38
61026;BME280;46911;32.650;-16.902;2023-04-26T08:16:47;101216.00;;;19.87;51.35
61026;BME280;46911;32.650;-16.902;2023-04-26T08:18:53;101239.53;;;20.04;51.60
61026;BME280;46911;32.650;-16.902;2023-04-26T08:20:55;101243.16;;;20.13;51.91
61026;BME280;46911;32.650;-16.902;2023-04-26T08:22:56;101247.63;;;20.22;52.39
61026;BME280;46911;32.650;-16.902;2023-04-26T08:24:57;101245.16;;;20.29;52.05
61026;BME280;46911;32.650;-16.902;2023-04-26T08:26:58;101219.06;;;20.28;51.58
61026;BME280;46911;32.650;-16.902;2023-04-26T08:29:01;101238.88;;;20.47;50.98
61026;BME280;46911;32.650;-16.902;2023-04-26T08:31:04;101237.41;;;20.52;51.76
61026;BME280;46911;32.650;-16.902;2023-04-26T08:33:08;101228.59;;;20.50;52.35
61026;BME280;46911;32.650;-16.902;2023-04-26T08:35:10;101234.16;;;20.49;53.85
61026;BME280;46911;32.650;-16.902;2023-04-26T08:37:11;101240.19;;;20.43;54.18
61026;BME280;46911;32.650;-16.902;2023-04-26T08:39:12;101230.53;;;20.22;54.86
61026;BME280;46911;32.650;-16.902;2023-04-26T08:41:14;101241.91;;;20.07;56.62
61026;BME280;46911;32.650;-16.902;2023-04-26T08:43:19;101245.47;;;19.90;58.43
61026;BME280;46911;32.650;-16.902;2023-04-26T08:45:21;101224.59;;;19.72;58.35
61026;BME280;46911;32.650;-16.902;2023-04-26T08:47:27;101222.06;;;19.71;58.64
61026;BME280;46911;32.650;-16.902;2023-04-26T08:49:45;101236.78;;;19.86;56.74
61026;BME280;46911;32.650;-16.902;2023-04-26T08:51:49;101245.41;;;20.18;55.85
61026;BME280;46911;32.650;-16.902;2023-04-26T08:53:52;101233.56;;;20.01;57.22
61026;BME280;46911;32.650;-16.902;2023-04-26T08:55:57;101225.81;;;20.24;57.48
61026;BME280;46911;32.650;-16.902;2023-04-26T08:58:01;101217.09;;;20.74;56.05
61026;BME280;46911;32.650;-16.902;2023-04-26T09:00:06;101225.53;;;20.98;54.69
61026;BME280;46911;32.650;-16.902;2023-04-26T09:02:22;101218.38;;;21.23;54.39
61026;BME280;46911;32.650;-16.902;2023-04-26T09:04:23;101219.84;;;21.86;55.14
61026;BME280;46911;32.650;-16.902;2023-04-26T09:06:25;101213.59;;;22.19;53.42
61026;BME280;46911;32.650;-16.902;2023-04-26T09:08:32;101223.47;;;22.45;51.77
61026;BME280;46911;32.650;-16.902;2023-04-26T09:10:36;101208.09;;;23.01;51.36
61026;BME280;46911;32.650;-16.902;2023-04-26T09:12:37;101213.13;;;23.37;50.60
61026;BME280;46911;32.650;-16.902;2023-04-26T09:14:43;101226.41;;;23.32;52.07
61026;BME280;46911;32.650;-16.902;2023-04-26T09:16:44;101230.13;;;23.71;51.08
61026;BME280;46911;32.650;-16.902;2023-04-26T09:18:49;101220.59;;;23.75;50.07
61026;BME280;46911;32.650;-16.902;2023-04-26T09:21:07;101214.88;;;24.39;49.56
61026;BME280;46911;32.650;-16.902;2023-04-26T09:23:12;101192.97;;;24.10;48.53
61026;BME280;46911;32.650;-16.902;2023-04-26T09:25:27;101223.16;;;24.46;48.38
61026;BME280;46911;32.650;-16.902;2023-04-26T09:29:36;101218.13;;;24.58;48.79
61026;BME280;46911;32.650;-16.902;2023-04-26T09:31:39;101227.09;;;24.44;48.27
61026;BME280;46911;32.650;-16.902;2023-04-26T09:33:57;101208.72;;;24.61;47.35
61026;BME280;46911;32.650;-16.902;2023-04-26T09:36:12;101209.94;;;24.58;47.23
61026;BME280;46911;32.650;-16.902;2023-04-26T09:38:19;101213.78;;;25.02;46.25
61026;BME280;46911;32.650;-16.902;2023-04-26T09:40:22;101199.38;;;25.38;45.13
61026;BME280;46911;32.650;-16.902;2023-04-26T09:42:23;101207.19;;;25.26;46.02
61026;BME280;46911;32.650;-16.902;2023-04-26T09:44:28;101202.03;;;24.48;46.46
61026;BME280;46911;32.650;-16.902;2023-04-26T09:46:29;101223.06;;;23.93;49.31
61026;BME280;46911;32.650;-16.902;2023-04-26T09:48:34;101206.41;;;23.80;50.46
61026;BME280;46911;32.650;-16.902;2023-04-26T09:50:39;101211.44;;;23.99;49.59
61026;BME280;46911;32.650;-16.902;2023-04-26T09:52:43;101231.63;;;24.74;48.36
61026;BME280;46911;32.650;-16.902;2023-04-26T09:54:49;101228.63;;;24.69;48.57
61026;BME280;46911;32.650;-16.902;2023-04-26T09:57:00;101250.72;;;24.05;49.76
61026;BME280;46911;32.650;-16.902;2023-04-26T09:59:03;101249.38;;;23.69;50.80
61026;BME280;46911;32.650;-16.902;2023-04-26T10:01:06;101258.66;;;23.52;49.95
61026;BME280;46911;32.650;-16.902;2023-04-26T10:03:11;101247.69;;;23.68;49.05
61026;BME280;46911;32.650;-16.902;2023-04-26T10:05:15;101243.66;;;23.56;47.47
61026;BME280;46911;32.650;-16.902;2023-04-26T10:07:18;101237.66;;;23.61;47.32
61026;BME280;46911;32.650;-16.902;2023-04-26T10:09:20;101232.03;;;23.31;47.19
61026;BME280;46911;32.650;-16.902;2023-04-26T10:11:23;101233.34;;;22.70;49.62
61026;BME280;46911;32.650;-16.902;2023-04-26T10:13:30;101229.94;;;22.52;50.60
61026;BME280;46911;32.650;-16.902;2023-04-26T10:15:34;101241.66;;;22.69;51.18
61026;BME280;46911;32.650;-16.902;2023-04-26T10:17:38;101247.91;;;22.86;51.00
61026;BME280;46911;32.650;-16.902;2023-04-26T10:19:42;101232.31;;;22.80;50.92
61026;BME280;46911;32.650;-16.902;2023-04-26T10:21:47;101238.78;;;22.62;52.11
61026;BME280;46911;32.650;-16.902;2023-04-26T10:23:51;101242.69;;;22.60;51.81
61026;BME280;46911;32.650;-16.902;2023-04-26T10:25:53;101259.66;;;22.86;51.86
61026;BME280;46911;32.650;-16.902;2023-04-26T10:27:57;101247.88;;;23.11;54.04
61026;BME280;46911;32.650;-16.902;2023-04-26T10:34:21;101268.81;;;23.02;54.70
61026;BME280;46911;32.650;-16.902;2023-04-26T10:36:26;101275.41;;;23.07;53.37